Time;durP1;ratioP1;P1;durP2;ratioP2;P2;SDS_P1;SDS_P2;PMS_P1;PMS_P2;Temp;Humidity;BMP_temperature;BMP_pressure;BME280_temperature;BME280_humidity;BME280_pressure;Samples;Min_cycle;Max_cycle;Signal;HPM_P1;HPM_P2
2022/12/22 03:28:06;;;;;;;;;;;20.60;99.90;;;;;;5005267;28;20075;-62
2022/12/22 03:30:34;;;;;;;;;;;20.60;99.90;;;;;;5004310;28;19936;-65
2022/12/22 03:33:01;;;;;;;;;;;20.40;99.90;;;;;;5004931;28;20668;-61
2022/12/22 03:35:27;;;;;;;;;;;20.30;99.90;;;;;;5004973;28;19913;-64
2022/12/22 03:37:54;;;;;;;;;;;20.30;99.90;;;;;;5004475;28;19917;-61
2022/12/22 03:40:20;;;;;;;;;;;20.40;99.90;;;;;;5004612;28;20008;-62
2022/12/22 03:48:17;;;;;;;;;;;20.70;99.90;;;;;;5004504;28;20037;-69
2022/12/22 03:50:43;;;;;;;;;;;20.60;99.90;;;;;;5004459;28;19924;-68
2022/12/22 03:53:10;;;;;;;;;;;20.60;99.90;;;;;;5003712;28;19925;-66
2022/12/22 03:55:37;;;;;;;;;;;20.80;99.90;;;;;;5004304;28;20008;-62
2022/12/22 03:58:03;;;;;;;;;;;20.90;99.90;;;;;;5004733;28;20016;-67
2022/12/22 04:00:30;;;;;;;;;;;21.00;99.90;;;;;;5004408;28;20193;-62
2022/12/22 04:03:00;;;;;;;;;;;21.10;99.90;;;;;;5004639;28;20307;-64
2022/12/22 04:05:26;;;;;;;;;;;21.20;99.90;;;;;;5004298;28;19936;-63
2022/12/22 04:07:53;;;;;;;;;;;21.20;99.90;;;;;;5004530;28;19935;-64
2022/12/22 04:13:04;;;;;;;;;;;21.30;99.90;;;;;;5004583;28;19956;-61
2022/12/22 04:15:31;;;;;;;;;;;21.30;99.90;;;;;;5004524;28;20401;-60
2022/12/22 04:17:58;;;;;;;;;;;21.30;99.90;;;;;;5004315;28;19913;-61
2022/12/22 04:20:26;;;;;;;;;;;21.30;99.90;;;;;;5004488;28;20600;-61
2022/12/22 04:22:53;;;;;;;;;;;21.20;99.90;;;;;;5004912;28;19913;-68
2022/12/22 04:25:20;;;;;;;;;;;21.30;99.90;;;;;;5004148;28;19928;-65
2022/12/22 04:27:47;;;;;;;;;;;21.30;99.90;;;;;;5004503;28;19914;-61
2022/12/22 04:30:14;;;;;;;;;;;21.20;99.90;;;;;;5004482;28;20008;-69
2022/12/22 04:32:41;;;;;;;;;;;21.10;99.90;;;;;;5004470;28;20346;-65
2022/12/22 04:35:08;;;;;;;;;;;21.10;99.90;;;;;;5004464;28;20427;-70
2022/12/22 04:37:34;;;;;;;;;;;21.00;99.90;;;;;;5003846;28;19921;-71
2022/12/22 04:40:01;;;;;;;;;;;21.00;99.90;;;;;;5004397;28;19947;-69
2022/12/22 04:42:28;;;;;;;;;;;20.90;99.90;;;;;;5005647;28;20632;-64
2022/12/22 04:44:55;;;;;;;;;;;20.90;99.90;;;;;;5007772;28;19921;-63
2022/12/22 04:47:21;;;;;;;;;;;20.90;99.90;;;;;;5007563;28;20354;-61
2022/12/22 04:49:48;;;;;;;;;;;20.90;99.90;;;;;;5007788;28;19960;-61
2022/12/22 04:52:15;;;;;;;;;;;20.90;99.90;;;;;;5007523;28;19921;-66
2022/12/22 04:54:41;;;;;;;;;;;20.90;99.90;;;;;;5007653;28;19921;-67
2022/12/22 04:57:08;;;;;;;;;;;20.90;99.90;;;;;;5007437;28;19913;-68
2022/12/22 04:59:35;;;;;;;;;;;20.90;99.90;;;;;;5006972;28;19960;-66
2022/12/22 05:02:01;;;;;;;;;;;20.90;99.90;;;;;;5007628;28;20288;-67
2022/12/22 05:04:28;;;;;;;;;;;20.80;99.90;;;;;;5007319;28;19949;-74
2022/12/22 05:06:55;;;;;;;;;;;20.50;99.90;;;;;;5007397;28;19913;-70
2022/12/22 05:09:21;;;;;;;;;;;20.10;99.90;;;;;;5007368;28;19920;-66
2022/12/22 05:11:48;;;;;;;;;;;19.80;99.90;;;;;;5006911;28;19960;-63
2022/12/22 05:14:15;;;;;;;;;;;19.60;99.90;;;;;;5007365;28;19914;-63
2022/12/22 05:16:41;;;;;;;;;;;19.40;99.90;;;;;;5011227;28;19914;-64
2022/12/22 05:19:08;;;;;;;;;;;19.40;99.90;;;;;;5015742;28;19941;-67
2022/12/22 05:21:35;;;;;;;;;;;19.40;99.90;;;;;;5015353;28;19918;-64
2022/12/22 05:24:01;;;;;;;;;;;19.40;99.90;;;;;;5015804;28;19909;-66
2022/12/22 05:26:28;;;;;;;;;;;19.30;99.90;;;;;;5015582;28;20311;-70
2022/12/22 05:28:55;;;;;;;;;;;19.30;99.90;;;;;;5015455;28;20382;-63
2022/12/22 05:31:23;;;;;;;;;;;19.30;99.90;;;;;;5015282;28;19937;-67
2022/12/22 05:33:50;;;;;;;;;;;19.30;99.90;;;;;;5015471;28;19937;-63
2022/12/22 05:36:16;;;;;;;;;;;19.40;99.90;;;;;;5015277;28;19909;-63
2022/12/22 05:38:43;;;;;;;;;;;19.20;99.90;;;;;;5015177;28;19910;-61
2022/12/22 05:41:10;;;;;;;;;;;19.10;99.90;;;;;;5015099;28;19936;-61
2022/12/22 05:43:37;;;;;;;;;;;18.90;99.90;;;;;;5014780;28;19996;-65
2022/12/22 05:46:05;;;;;;;;;;;18.70;99.90;;;;;;5015168;28;19914;-65
2022/12/22 05:48:32;;;;;;;;;;;18.70;99.90;;;;;;5015127;28;19972;-63
2022/12/22 05:50:58;;;;;;;;;;;18.70;99.90;;;;;;5013699;28;19909;-63
2022/12/22 05:53:25;;;;;;;;;;;18.60;99.90;;;;;;5011741;28;20360;-67
2022/12/22 05:55:52;;;;;;;;;;;18.60;99.90;;;;;;5012770;28;19937;-66
2022/12/22 05:58:18;;;;;;;;;;;18.50;99.90;;;;;;5012586;28;19913;-61
2022/12/22 06:00:45;;;;;;;;;;;18.50;99.90;;;;;;5012598;28;19924;-68
2022/12/22 06:03:12;;;;;;;;;;;18.70;99.90;;;;;;5012578;28;19936;-64
2022/12/22 06:05:39;;;;;;;;;;;18.80;99.90;;;;;;5011873;28;20669;-62
2022/12/22 06:08:05;;;;;;;;;;;18.80;99.90;;;;;;5012467;28;19909;-74
2022/12/22 06:10:32;;;;;;;;;;;18.70;99.90;;;;;;5012523;28;19913;-67
2022/12/22 06:12:58;;;;;;;;;;;18.60;99.90;;;;;;5010880;28;19915;-69
2022/12/22 06:15:25;;;;;;;;;;;18.60;99.90;;;;;;5012112;28;19996;-64
2022/12/22 06:17:52;;;;;;;;;;;18.70;99.90;;;;;;5012132;28;19949;-66
2022/12/22 06:20:18;;;;;;;;;;;18.70;99.90;;;;;;5012138;28;19913;-75
2022/12/22 06:22:45;;;;;;;;;;;18.70;99.90;;;;;;5012207;28;20051;-74
2022/12/22 06:25:12;;;;;;;;;;;18.70;99.90;;;;;;5012183;28;20368;-62
2022/12/22 06:27:38;;;;;;;;;;;18.70;99.90;;;;;;5011854;28;19910;-70
2022/12/22 06:30:05;;;;;;;;;;;18.80;99.90;;;;;;5011827;28;19917;-74
2022/12/22 06:32:35;;;;;;;;;;;18.90;99.90;;;;;;5012201;28;19910;-69
2022/12/22 06:35:01;;;;;;;;;;;19.00;99.90;;;;;;5012146;28;19909;-72
2022/12/22 06:37:28;;;;;;;;;;;19.10;99.90;;;;;;5011892;28;19921;-67
2022/12/22 06:39:55;;;;;;;;;;;19.20;99.90;;;;;;5011986;28;19913;-67
2022/12/22 06:45:06;;;;;;;;;;;19.40;99.90;;;;;;5011748;28;20322;-64
2022/12/22 06:47:33;;;;;;;;;;;19.40;99.90;;;;;;5011737;28;19910;-71
2022/12/22 06:50:00;;;;;;;;;;;19.40;99.90;;;;;;5011616;28;19909;-78
2022/12/22 06:52:26;;;;;;;;;;;19.40;99.90;;;;;;5011795;28;20368;-72
2022/12/22 06:54:53;;;;;;;;;;;19.30;99.90;;;;;;5011575;28;19924;-75
2022/12/22 06:57:19;;;;;;;;;;;19.30;99.90;;;;;;5011187;28;20004;-76
2022/12/22 06:59:46;;;;;;;;;;;19.20;99.90;;;;;;5011594;28;19964;-62
2022/12/22 07:02:13;;;;;;;;;;;19.10;99.90;;;;;;5011366;28;20303;-62
2022/12/22 07:04:39;;;;;;;;;;;18.90;99.90;;;;;;5011522;28;20032;-61
2022/12/22 07:07:06;;;;;;;;;;;18.80;99.90;;;;;;5011664;28;20356;-61
2022/12/22 07:09:33;;;;;;;;;;;18.70;99.90;;;;;;5010843;28;20375;-62
2022/12/22 07:11:59;;;;;;;;;;;18.60;99.90;;;;;;5011271;28;19917;-61
2022/12/22 07:14:26;;;;;;;;;;;18.50;99.90;;;;;;5011222;28;19909;-64
2022/12/22 07:16:52;;;;;;;;;;;18.40;99.90;;;;;;5011592;28;19940;-66
2022/12/22 07:19:19;;;;;;;;;;;18.40;99.90;;;;;;5011050;28;19985;-61
2022/12/22 07:21:50;;;;;;;;;;;18.30;99.90;;;;;;5011539;28;20138;-61
2022/12/22 07:24:22;;;;;;;;;;;18.30;99.90;;;;;;5010994;28;19989;-61
2022/12/22 07:26:48;;;;;;;;;;;18.30;99.90;;;;;;5011031;28;19955;-69
2022/12/22 07:29:15;;;;;;;;;;;18.30;99.90;;;;;;5011197;28;19909;-61
2022/12/22 07:31:42;;;;;;;;;;;18.30;99.90;;;;;;5011283;28;19910;-63
2022/12/22 07:34:08;;;;;;;;;;;18.30;99.90;;;;;;5011212;28;20143;-64
2022/12/22 07:36:35;;;;;;;;;;;18.30;99.90;;;;;;5010726;28;19920;-61
2022/12/22 07:39:02;;;;;;;;;;;18.20;99.90;;;;;;5011155;28;19913;-61
2022/12/22 07:44:13;;;;;;;;;;;18.30;99.90;;;;;;5011636;28;19917;-62
2022/12/22 07:46:40;;;;;;;;;;;18.20;99.90;;;;;;5011198;28;19909;-62
2022/12/22 07:51:52;;;;;;;;;;;18.20;99.90;;;;;;5011298;28;20315;-71
2022/12/22 07:54:18;;;;;;;;;;;18.20;99.90;;;;;;5011120;28;19917;-61
2022/12/22 07:56:46;;;;;;;;;;;18.20;99.90;;;;;;5010723;28;20371;-66
2022/12/22 07:59:13;;;;;;;;;;;18.30;99.90;;;;;;5010939;28;19910;-62
2022/12/22 08:01:40;;;;;;;;;;;18.20;99.90;;;;;;5010132;28;19943;-62
2022/12/22 08:04:07;;;;;;;;;;;18.20;99.90;;;;;;5010714;28;19932;-62
2022/12/22 08:06:34;;;;;;;;;;;18.10;99.90;;;;;;5011029;28;19913;-61
2022/12/22 08:09:01;;;;;;;;;;;18.10;99.90;;;;;;5011006;28;20000;-63
2022/12/22 08:11:28;;;;;;;;;;;18.10;99.90;;;;;;5011931;28;19959;-64
2022/12/22 08:13:55;;;;;;;;;;;18.20;99.90;;;;;;5012609;28;19909;-61
2022/12/22 08:16:21;;;;;;;;;;;18.20;99.90;;;;;;5012660;28;20383;-62
2022/12/22 08:18:48;;;;;;;;;;;18.30;99.90;;;;;;5016443;28;19963;-63
2022/12/22 08:21:15;;;;;;;;;;;18.30;99.90;;;;;;5016424;28;19918;-63
2022/12/22 08:23:42;;;;;;;;;;;18.20;99.90;;;;;;5016415;28;20397;-68
2022/12/22 08:26:14;;;;;;;;;;;18.20;99.90;;;;;;5016550;28;20318;-68
2022/12/22 08:28:48;;;;;;;;;;;18.10;99.90;;;;;;5016596;28;20323;-68
2022/12/22 08:31:15;;;;;;;;;;;18.00;99.90;;;;;;5016283;28;19939;-63
2022/12/22 08:33:42;;;;;;;;;;;18.00;99.90;;;;;;5016295;28;19964;-69
2022/12/22 08:36:09;;;;;;;;;;;18.00;99.90;;;;;;5016475;28;19916;-62
2022/12/22 08:38:37;;;;;;;;;;;18.10;99.90;;;;;;5016403;28;19953;-76
2022/12/22 08:41:03;;;;;;;;;;;18.10;99.90;;;;;;5016232;28;19971;-62
2022/12/22 08:43:32;;;;;;;;;;;18.10;99.90;;;;;;5015970;28;19921;-65
2022/12/22 08:45:58;;;;;;;;;;;18.10;99.90;;;;;;5016440;28;19917;-75
2022/12/22 08:48:25;;;;;;;;;;;18.10;99.90;;;;;;5016203;28;19937;-63
2022/12/22 08:50:52;;;;;;;;;;;18.00;99.90;;;;;;5016143;28;19917;-70
2022/12/22 08:53:18;;;;;;;;;;;18.10;99.90;;;;;;5015614;28;19921;-62
2022/12/22 08:55:52;;;;;;;;;;;18.10;99.90;;;;;;5015882;28;19957;-71
2022/12/22 08:58:19;;;;;;;;;;;18.20;99.90;;;;;;5015699;28;19910;-67
2022/12/22 09:00:46;;;;;;;;;;;18.20;99.90;;;;;;5015792;28;19913;-63
2022/12/22 09:03:12;;;;;;;;;;;18.10;99.90;;;;;;5015873;28;20253;-65
2022/12/22 09:05:40;;;;;;;;;;;18.20;99.90;;;;;;5015610;28;20000;-62
2022/12/22 09:08:07;;;;;;;;;;;18.20;99.90;;;;;;5015689;28;19917;-62
2022/12/22 09:10:33;;;;;;;;;;;18.10;99.90;;;;;;5015741;28;20387;-63
2022/12/22 09:13:00;;;;;;;;;;;18.10;99.90;;;;;;5015564;28;19917;-65
2022/12/22 09:15:27;;;;;;;;;;;18.10;99.90;;;;;;5015362;28;20007;-63
2022/12/22 09:17:53;;;;;;;;;;;18.20;99.90;;;;;;5014360;28;19910;-70
2022/12/22 09:20:20;;;;;;;;;;;18.20;99.90;;;;;;5015542;28;20356;-67
2022/12/22 09:22:47;;;;;;;;;;;18.10;99.90;;;;;;5015365;28;19933;-67
2022/12/22 09:25:16;;;;;;;;;;;18.10;99.90;;;;;;5015413;28;19944;-74
2022/12/22 09:27:43;;;;;;;;;;;18.10;99.90;;;;;;5015137;28;19909;-74
2022/12/22 09:30:09;;;;;;;;;;;18.10;99.90;;;;;;5015412;28;19916;-66
2022/12/22 09:32:36;;;;;;;;;;;18.10;99.90;;;;;;5015300;28;20276;-74
2022/12/22 09:35:03;;;;;;;;;;;18.10;99.90;;;;;;5015204;28;20000;-63
2022/12/22 09:37:29;;;;;;;;;;;18.10;99.90;;;;;;5014971;28;20360;-63
2022/12/22 09:39:56;;;;;;;;;;;18.20;99.90;;;;;;5015403;28;19910;-69
2022/12/22 09:42:23;;;;;;;;;;;18.10;99.90;;;;;;5015218;28;20012;-72
2022/12/22 09:44:51;;;;;;;;;;;18.10;99.90;;;;;;5015393;28;19910;-62
2022/12/22 09:47:45;;;;;;;;;;;18.10;99.90;;;;;;5015137;28;20261;-67
2022/12/22 09:50:15;;;;;;;;;;;18.10;99.90;;;;;;5012635;28;20000;-62
2022/12/22 09:52:43;;;;;;;;;;;18.20;99.90;;;;;;5015068;28;20036;-66
2022/12/22 09:55:12;;;;;;;;;;;18.10;99.90;;;;;;5015371;28;19910;-66
2022/12/22 09:57:39;;;;;;;;;;;18.10;99.90;;;;;;5014856;28;19909;-63
2022/12/22 10:00:16;;;;;;;;;;;18.10;99.90;;;;;;5015115;28;19917;-66
2022/12/22 10:03:01;;;;;;;;;;;18.00;99.90;;;;;;5015106;28;19976;-61
2022/12/22 10:05:46;;;;;;;;;;;18.10;99.90;;;;;;5014901;28;20009;-73
2022/12/22 10:08:21;;;;;;;;;;;18.00;99.90;;;;;;5015191;28;20008;-69
2022/12/22 10:10:52;;;;;;;;;;;18.00;99.90;;;;;;5014911;28;20000;-71
2022/12/22 10:13:19;;;;;;;;;;;18.00;99.90;;;;;;5015038;28;19940;-65
2022/12/22 10:15:46;;;;;;;;;;;18.00;99.90;;;;;;5015302;28;19963;-63
2022/12/22 10:18:14;;;;;;;;;;;18.00;99.90;;;;;;5015143;28;19910;-62
2022/12/22 10:20:42;;;;;;;;;;;18.00;99.90;;;;;;5014843;28;19913;-69
2022/12/22 10:23:28;;;;;;;;;;;18.00;99.90;;;;;;5014819;28;19968;-66
2022/12/22 10:25:58;;;;;;;;;;;18.00;99.90;;;;;;5014823;28;19917;-69
2022/12/22 10:28:29;;;;;;;;;;;18.00;99.90;;;;;;5015000;28;19913;-73
2022/12/22 10:31:14;;;;;;;;;;;18.00;99.90;;;;;;5014575;28;19956;-62
2022/12/22 10:33:42;;;;;;;;;;;18.00;99.90;;;;;;5010867;28;19913;-69
2022/12/22 10:36:08;;;;;;;;;;;18.00;99.90;;;;;;5006164;28;19921;-65
2022/12/22 10:38:58;;;;;;;;;;;18.00;99.90;;;;;;5006050;28;20287;-67
2022/12/22 10:41:26;;;;;;;;;;;18.00;99.90;;;;;;4994612;28;19918;-66
2022/12/22 10:43:57;;;;;;;;;;;18.10;99.90;;;;;;5006007;28;19913;-70
2022/12/22 10:46:50;;;;;;;;;;;18.10;99.90;;;;;;5005629;28;19917;-74
2022/12/22 10:49:22;;;;;;;;;;;18.10;99.90;;;;;;5002232;28;19920;-71
2022/12/22 10:51:53;;;;;;;;;;;18.10;99.90;;;;;;5005511;28;19924;-68
2022/12/22 10:54:28;;;;;;;;;;;18.10;99.90;;;;;;5005724;28;19929;-70
2022/12/22 10:57:02;;;;;;;;;;;18.10;99.90;;;;;;5005724;28;19914;-72
2022/12/22 10:59:30;;;;;;;;;;;18.10;99.90;;;;;;5005520;28;20265;-64
2022/12/22 11:02:16;;;;;;;;;;;18.10;99.90;;;;;;5005303;28;20178;-64
2022/12/22 11:04:43;;;;;;;;;;;18.10;99.90;;;;;;5004816;28;20019;-67
2022/12/22 11:07:10;;;;;;;;;;;18.20;99.90;;;;;;5005250;28;20346;-64
2022/12/22 11:09:36;;;;;;;;;;;18.10;99.90;;;;;;5005232;28;20307;-68
2022/12/22 11:12:21;;;;;;;;;;;18.10;99.90;;;;;;5005091;28;19924;-66
2022/12/22 11:15:07;;;;;;;;;;;18.10;99.90;;;;;;5004953;28;20283;-64
2022/12/22 11:17:40;;;;;;;;;;;18.10;99.90;;;;;;5004905;28;19918;-67
2022/12/22 11:20:07;;;;;;;;;;;18.20;99.90;;;;;;5006456;28;19977;-64
2022/12/22 11:22:36;;;;;;;;;;;18.20;99.90;;;;;;5006515;28;20247;-65
2022/12/22 11:25:21;;;;;;;;;;;18.20;99.90;;;;;;5007741;28;19913;-63
2022/12/22 11:27:54;;;;;;;;;;;18.20;99.90;;;;;;5005973;28;20060;-62
2022/12/22 11:30:33;;;;;;;;;;;18.20;99.90;;;;;;5005688;28;19940;-67
2022/12/22 11:33:15;;;;;;;;;;;18.30;99.90;;;;;;5005236;28;19913;-68
2022/12/22 11:35:42;;;;;;;;;;;18.30;99.90;;;;;;5004795;28;20370;-70
2022/12/22 11:38:11;;;;;;;;;;;18.30;99.90;;;;;;5004791;28;19918;-69
2022/12/22 11:40:47;;;;;;;;;;;18.30;99.90;;;;;;5004209;28;19940;-65
2022/12/22 11:43:17;;;;;;;;;;;18.30;99.90;;;;;;5004889;28;20001;-68
2022/12/22 11:45:46;;;;;;;;;;;18.30;99.90;;;;;;5004872;28;19914;-68
2022/12/22 11:48:31;;;;;;;;;;;18.30;99.90;;;;;;5004565;28;19959;-64
2022/12/22 11:51:04;;;;;;;;;;;18.30;99.90;;;;;;5004486;28;19913;-67
2022/12/22 11:53:34;;;;;;;;;;;18.40;99.90;;;;;;5007387;28;19925;-65
2022/12/22 11:56:10;;;;;;;;;;;18.40;99.90;;;;;;5008490;28;20318;-63
2022/12/22 11:58:47;;;;;;;;;;;18.40;99.90;;;;;;5008619;28;19913;-71
2022/12/22 12:01:27;;;;;;;;;;;18.40;99.90;;;;;;5008455;28;20368;-64
2022/12/22 12:04:12;;;;;;;;;;;18.50;99.90;;;;;;5008634;28;19917;-69
2022/12/22 12:06:38;;;;;;;;;;;18.50;99.90;;;;;;5006544;28;19913;-74
2022/12/22 12:09:05;;;;;;;;;;;18.60;99.90;;;;;;5008307;28;19914;-72
2022/12/22 12:12:07;;;;;;;;;;;18.60;99.90;;;;;;5008016;28;19920;-67
2022/12/22 12:14:51;;;;;;;;;;;18.60;99.90;;;;;;4927918;29;20018;-64
2022/12/22 12:17:24;;;;;;;;;;;18.60;99.90;;;;;;5001644;28;19983;-75
2022/12/22 12:20:08;;;;;;;;;;;18.70;99.90;;;;;;5007933;28;20325;-66
2022/12/22 12:22:43;;;;;;;;;;;18.70;99.90;;;;;;5008002;28;19948;-72
2022/12/22 12:25:22;;;;;;;;;;;18.70;99.90;;;;;;5008420;28;20253;-72
2022/12/22 12:28:03;;;;;;;;;;;18.70;99.90;;;;;;5008274;28;19914;-64
2022/12/22 12:30:33;;;;;;;;;;;18.80;99.90;;;;;;5007970;28;20414;-66
2022/12/22 12:33:02;;;;;;;;;;;18.80;99.90;;;;;;5007736;28;19968;-75
2022/12/22 12:35:38;;;;;;;;;;;18.80;99.90;;;;;;5007954;28;19913;-70
2022/12/22 12:38:07;;;;;;;;;;;18.80;99.90;;;;;;5007889;28;19918;-67
2022/12/22 12:40:53;;;;;;;;;;;18.80;99.90;;;;;;5008042;28;19932;-67
2022/12/22 12:43:20;;;;;;;;;;;18.90;99.90;;;;;;5007937;28;20287;-70
2022/12/22 12:45:49;;;;;;;;;;;18.80;99.90;;;;;;5007438;28;19913;-66
2022/12/22 12:48:22;;;;;;;;;;;18.80;99.90;;;;;;5008429;28;19913;-74
2022/12/22 12:50:52;;;;;;;;;;;18.80;99.90;;;;;;5006250;28;19936;-70
2022/12/22 12:53:23;;;;;;;;;;;18.80;99.90;;;;;;5007244;28;20307;-71
2022/12/22 12:55:50;;;;;;;;;;;18.80;99.90;;;;;;5007649;28;19924;-69
2022/12/22 12:58:38;;;;;;;;;;;18.90;99.90;;;;;;5007491;28;19925;-62
2022/12/22 13:01:06;;;;;;;;;;;18.70;99.90;;;;;;5007680;28;20295;-62
2022/12/22 13:03:33;;;;;;;;;;;18.70;99.90;;;;;;5006678;28;19914;-65
2022/12/22 13:06:01;;;;;;;;;;;18.70;99.90;;;;;;5007968;28;19913;-69
2022/12/22 13:08:29;;;;;;;;;;;18.70;99.90;;;;;;5007490;28;19913;-62
2022/12/22 13:10:55;;;;;;;;;;;18.70;99.90;;;;;;5006924;28;19920;-64
2022/12/22 13:13:22;;;;;;;;;;;18.70;99.90;;;;;;5007155;28;19917;-67
2022/12/22 13:16:08;;;;;;;;;;;18.70;99.90;;;;;;5007277;28;19913;-64
2022/12/22 13:18:39;;;;;;;;;;;18.70;99.90;;;;;;5007012;28;19952;-63
2022/12/22 13:21:05;;;;;;;;;;;18.70;99.90;;;;;;5007095;28;20334;-69
2022/12/22 13:23:35;;;;;;;;;;;18.70;99.90;;;;;;5006607;28;19944;-74
2022/12/22 13:26:24;;;;;;;;;;;18.70;99.90;;;;;;5007116;28;20466;-65
2022/12/22 13:28:58;;;;;;;;;;;18.60;99.90;;;;;;4996478;28;20383;-66
2022/12/22 13:31:36;;;;;;;;;;;18.60;99.90;;;;;;5006997;28;19924;-68
2022/12/22 13:34:06;;;;;;;;;;;18.50;99.90;;;;;;5006941;28;19935;-64
2022/12/22 13:36:33;;;;;;;;;;;18.50;99.90;;;;;;5006556;28;19914;-66
2022/12/22 13:39:12;;;;;;;;;;;18.50;99.90;;;;;;5006924;28;20372;-62
2022/12/22 13:41:40;;;;;;;;;;;18.40;99.90;;;;;;5006377;28;19921;-66
2022/12/22 13:44:08;;;;;;;;;;;18.40;99.90;;;;;;5006859;28;19913;-69
2022/12/22 13:46:35;;;;;;;;;;;18.40;99.90;;;;;;5006546;28;19918;-65
2022/12/22 13:49:03;;;;;;;;;;;18.40;99.90;;;;;;5006664;28;20364;-70
2022/12/22 13:51:37;;;;;;;;;;;18.50;99.90;;;;;;5006674;28;20071;-69
2022/12/22 13:54:12;;;;;;;;;;;18.50;99.90;;;;;;5006409;28;19925;-67
2022/12/22 13:56:40;;;;;;;;;;;18.50;99.90;;;;;;5006652;28;19914;-70
2022/12/22 13:59:22;;;;;;;;;;;18.50;99.90;;;;;;5006400;28;19919;-62
2022/12/22 14:01:49;;;;;;;;;;;18.50;99.90;;;;;;5006302;28;20194;-71
2022/12/22 14:04:16;;;;;;;;;;;18.50;99.90;;;;;;5006062;28;20390;-69
2022/12/22 14:06:43;;;;;;;;;;;18.50;99.90;;;;;;5006385;28;20335;-69
2022/12/22 14:09:13;;;;;;;;;;;18.50;99.90;;;;;;5006380;28;19913;-66
2022/12/22 14:11:40;;;;;;;;;;;18.50;99.90;;;;;;5006047;28;19940;-73
2022/12/22 14:14:14;;;;;;;;;;;18.50;99.90;;;;;;5005746;28;19914;-66
2022/12/22 14:16:45;;;;;;;;;;;18.50;99.90;;;;;;5005311;28;20665;-72
2022/12/22 14:19:19;;;;;;;;;;;18.50;99.90;;;;;;5006294;28;20465;-64
2022/12/22 14:21:47;;;;;;;;;;;18.50;99.90;;;;;;5006127;28;19921;-63
2022/12/22 14:24:23;;;;;;;;;;;18.50;99.90;;;;;;5006024;28;20382;-68
2022/12/22 14:26:51;;;;;;;;;;;18.50;99.90;;;;;;5005707;28;19920;-68
2022/12/22 14:29:20;;;;;;;;;;;18.40;99.90;;;;;;5005150;28;19914;-70
2022/12/22 14:31:54;;;;;;;;;;;18.40;99.90;;;;;;5005857;28;19918;-72
2022/12/22 14:34:25;;;;;;;;;;;18.40;99.90;;;;;;5005795;28;20355;-68
2022/12/22 14:36:52;;;;;;;;;;;18.40;99.90;;;;;;5006079;28;20319;-71
2022/12/22 14:39:26;;;;;;;;;;;18.40;99.90;;;;;;5005444;28;19914;-69
2022/12/22 14:41:54;;;;;;;;;;;18.50;99.90;;;;;;5005701;28;20265;-67
2022/12/22 14:44:26;;;;;;;;;;;18.40;99.90;;;;;;5005684;28;20356;-66
2022/12/22 14:47:01;;;;;;;;;;;18.50;99.90;;;;;;5005512;28;20183;-76
2022/12/22 14:49:28;;;;;;;;;;;18.40;99.90;;;;;;5009027;28;19910;-66
2022/12/22 14:52:08;;;;;;;;;;;18.40;99.90;;;;;;5014071;28;20451;-63
2022/12/22 14:54:35;;;;;;;;;;;18.40;99.90;;;;;;5014154;28;20382;-74
2022/12/22 14:57:09;;;;;;;;;;;18.40;99.90;;;;;;5014296;28;19917;-67
2022/12/22 14:59:35;;;;;;;;;;;18.30;99.90;;;;;;5014124;28;19909;-67
2022/12/22 15:02:03;;;;;;;;;;;18.30;99.90;;;;;;5014106;28;19924;-63
2022/12/22 15:04:34;;;;;;;;;;;18.30;99.90;;;;;;5012296;28;20199;-65
2022/12/22 15:07:05;;;;;;;;;;;18.10;99.90;;;;;;5014398;28;20000;-73
2022/12/22 15:09:31;;;;;;;;;;;18.10;99.90;;;;;;5013746;28;19937;-67
2022/12/22 15:12:03;;;;;;;;;;;18.10;99.90;;;;;;5014163;28;19916;-63
2022/12/22 15:14:31;;;;;;;;;;;18.10;99.90;;;;;;5013921;28;19910;-63
2022/12/22 15:17:01;;;;;;;;;;;18.00;99.90;;;;;;5013888;28;19909;-67
2022/12/22 15:19:32;;;;;;;;;;;18.00;99.90;;;;;;5013760;28;20313;-65
2022/12/22 15:21:59;;;;;;;;;;;18.10;99.90;;;;;;5013757;28;19917;-62
2022/12/22 15:24:28;;;;;;;;;;;18.00;99.90;;;;;;5013796;28;19910;-64
2022/12/22 15:26:55;;;;;;;;;;;18.00;99.90;;;;;;5013764;28;19913;-66
2022/12/22 15:29:21;;;;;;;;;;;18.00;99.90;;;;;;5013526;28;19928;-66
2022/12/22 15:31:48;;;;;;;;;;;18.00;99.90;;;;;;5013756;28;20386;-65
2022/12/22 15:34:31;;;;;;;;;;;18.10;99.90;;;;;;5013659;28;19937;-63
2022/12/22 15:36:58;;;;;;;;;;;18.00;99.90;;;;;;5013709;28;19910;-66
2022/12/22 15:39:25;;;;;;;;;;;18.10;99.90;;;;;;5013438;28;19913;-64
2022/12/22 15:41:51;;;;;;;;;;;18.00;99.90;;;;;;5013555;28;20011;-63
2022/12/22 15:44:18;;;;;;;;;;;18.00;99.90;;;;;;5013556;28;19963;-69
2022/12/22 15:46:48;;;;;;;;;;;18.00;99.90;;;;;;5013585;28;19910;-63
2022/12/22 15:49:18;;;;;;;;;;;18.00;99.90;;;;;;5013760;28;19936;-67
2022/12/22 15:51:47;;;;;;;;;;;18.00;99.90;;;;;;5013438;28;19914;-62
2022/12/22 15:54:15;;;;;;;;;;;18.10;99.90;;;;;;5013442;28;19931;-65
2022/12/22 15:56:42;;;;;;;;;;;18.10;99.90;;;;;;5013589;28;19996;-63
2022/12/22 15:59:11;;;;;;;;;;;18.10;99.90;;;;;;5013572;28;19910;-62
2022/12/22 16:01:38;;;;;;;;;;;18.10;99.90;;;;;;5013269;28;20359;-64
2022/12/22 16:04:05;;;;;;;;;;;18.10;99.90;;;;;;5013444;28;19917;-68
2022/12/22 16:06:31;;;;;;;;;;;18.10;99.90;;;;;;5013401;28;20050;-62
2022/12/22 16:08:59;;;;;;;;;;;18.20;99.90;;;;;;5013227;28;20274;-62
2022/12/22 16:11:26;;;;;;;;;;;18.10;99.90;;;;;;5013074;28;19960;-62
2022/12/22 16:13:52;;;;;;;;;;;18.10;99.90;;;;;;5013402;28;20005;-61
2022/12/22 16:16:19;;;;;;;;;;;18.10;99.90;;;;;;5013343;28;20260;-62
2022/12/22 16:18:45;;;;;;;;;;;18.10;99.90;;;;;;5013354;28;19909;-62
2022/12/22 16:21:18;;;;;;;;;;;18.20;99.90;;;;;;5013166;28;20356;-64
2022/12/22 16:23:46;;;;;;;;;;;18.20;99.90;;;;;;5013272;28;19913;-60
2022/12/22 16:26:17;;;;;;;;;;;18.20;99.90;;;;;;5013227;28;19917;-61
2022/12/22 16:28:43;;;;;;;;;;;18.30;99.90;;;;;;5013273;28;19916;-61
2022/12/22 16:31:20;;;;;;;;;;;18.20;99.90;;;;;;5013510;28;19909;-63
2022/12/22 16:33:47;;;;;;;;;;;18.30;99.90;;;;;;5013227;28;20371;-61
2022/12/22 16:36:14;;;;;;;;;;;18.30;99.90;;;;;;5013081;28;20252;-61
2022/12/22 16:38:40;;;;;;;;;;;18.40;99.90;;;;;;5014665;28;19917;-62
2022/12/22 16:41:17;;;;;;;;;;;18.40;99.90;;;;;;5016826;28;19917;-64
2022/12/22 16:43:44;;;;;;;;;;;18.50;99.90;;;;;;5016881;28;20017;-60
2022/12/22 16:46:13;;;;;;;;;;;18.50;99.90;;;;;;5016715;28;20371;-61
2022/12/22 16:48:42;;;;;;;;;;;18.50;99.90;;;;;;5016626;28;20417;-63
2022/12/22 16:51:13;;;;;;;;;;;18.50;99.90;;;;;;5016580;28;20352;-61
2022/12/22 16:53:40;;;;;;;;;;;18.50;99.90;;;;;;5016191;28;20291;-62
2022/12/22 16:56:10;;;;;;;;;;;18.50;99.90;;;;;;5016563;28;20000;-61
2022/12/22 16:58:36;;;;;;;;;;;18.50;99.90;;;;;;5016467;28;20340;-62
2022/12/22 17:01:04;;;;;;;;;;;18.50;99.90;;;;;;5016404;28;19917;-62
2022/12/22 17:03:30;;;;;;;;;;;18.50;99.90;;;;;;5014952;28;20056;-61
2022/12/22 17:06:00;;;;;;;;;;;18.50;99.90;;;;;;5016343;28;19943;-64
2022/12/22 17:08:28;;;;;;;;;;;18.50;99.90;;;;;;5016167;28;20303;-61
2022/12/22 17:10:57;;;;;;;;;;;18.50;99.90;;;;;;5016234;28;19909;-61
2022/12/22 17:13:24;;;;;;;;;;;18.50;99.90;;;;;;5016027;28;20184;-61
2022/12/22 17:15:50;;;;;;;;;;;18.50;99.90;;;;;;5016010;28;19909;-62
2022/12/22 17:18:20;;;;;;;;;;;18.50;99.90;;;;;;5016094;28;19909;-61
2022/12/22 17:20:49;;;;;;;;;;;18.50;99.90;;;;;;5016145;28;19916;-61
2022/12/22 17:23:24;;;;;;;;;;;18.50;99.90;;;;;;5016207;28;19957;-62
2022/12/22 17:25:51;;;;;;;;;;;18.50;99.90;;;;;;5016035;28;19910;-61
2022/12/22 17:28:18;;;;;;;;;;;18.50;99.90;;;;;;5015937;28;19955;-61
2022/12/22 17:30:44;;;;;;;;;;;18.50;99.90;;;;;;5015934;28;20352;-61
2022/12/22 17:33:14;;;;;;;;;;;18.50;99.90;;;;;;5015972;28;19910;-63
2022/12/22 17:35:42;;;;;;;;;;;18.50;99.90;;;;;;5015746;28;19929;-61
2022/12/22 17:38:13;;;;;;;;;;;18.40;99.90;;;;;;5015723;28;19909;-61
2022/12/22 17:40:39;;;;;;;;;;;18.40;99.90;;;;;;5015560;28;20276;-61
2022/12/22 17:43:10;;;;;;;;;;;18.40;99.90;;;;;;5015575;28;20280;-61
2022/12/22 17:45:37;;;;;;;;;;;18.40;99.90;;;;;;5015483;28;20003;-61
2022/12/22 17:48:03;;;;;;;;;;;18.50;99.90;;;;;;5015617;28;20033;-61
2022/12/22 17:50:30;;;;;;;;;;;18.50;99.90;;;;;;5014327;28;20312;-60
2022/12/22 17:52:57;;;;;;;;;;;18.40;99.90;;;;;;5015266;28;20367;-62
2022/12/22 17:55:25;;;;;;;;;;;18.40;99.90;;;;;;5013855;28;20277;-61
2022/12/22 17:57:52;;;;;;;;;;;18.40;99.90;;;;;;5015695;28;19916;-63
2022/12/22 18:00:20;;;;;;;;;;;18.30;99.90;;;;;;5015395;28;19909;-61
2022/12/22 18:02:47;;;;;;;;;;;18.40;99.90;;;;;;5015413;28;19917;-61
2022/12/22 18:05:21;;;;;;;;;;;18.40;99.90;;;;;;5015483;28;19913;-63
2022/12/22 18:07:48;;;;;;;;;;;18.40;99.90;;;;;;5015279;28;20329;-61
2022/12/22 18:10:24;;;;;;;;;;;18.50;99.90;;;;;;5015161;28;19910;-60
2022/12/22 18:12:54;;;;;;;;;;;18.50;99.90;;;;;;5015174;28;20450;-61